Central Lakes, Minnesota
Current Conditions -  °F | °C
As of 9:52 AM on Saturday 20 Dec 2014 (Local Time) from KEVM Reporting Station
Haze Haze  
Wind Chill: 20°   Ceiling: 700
Heat Index: 28°   Visibility: 3mi
Dew Point: 27°   Wind: 8mph
Humidity: 93%   Direction: 170°S
Pressure: 30.1"   Gusts: NA
Location:  47.4232°N, 92.5107°W
Report Text: KEVM 201552Z AUTO 17007KT 3SM BR OVC007 M02/M03 A3010 RMK AO2
Loading
Personal Weather Stations






























Interactive Weather Map New forecast layout! Learn more

10-Day Weather Forecast

Advertisements
Track Severe Weather on mobile